Time;durP1;ratioP1;P1;durP2;ratioP2;P2;SDS_P1;SDS_P2;PMS_P1;PMS_P2;Temp;Humidity;BMP_temperature;BMP_pressure;BME280_temperature;BME280_humidity;BME280_pressure;Samples;Min_cycle;Max_cycle;Signal;HPM_P1;HPM_P2
2022/09/02 00:00:42;;;;;;;2.15;1.70;;;16.40;98.90;;;;;;3060332;19;20002;-71
2022/09/02 00:01:49;;;;;;;2.72;1.80;;;16.20;99.00;;;;;;3061228;19;20081;-71
2022/09/02 00:02:50;;;;;;;3.25;1.52;;;16.20;99.10;;;;;;3060431;19;20010;-71
2022/09/02 00:03:57;;;;;;;2.42;1.65;;;16.20;99.20;;;;;;3061447;19;20419;-71
2022/09/02 00:04:58;;;;;;;2.67;1.55;;;16.20;99.00;;;;;;3059093;19;20036;-71
2022/09/02 00:06:03;;;;;;;2.47;2.00;;;16.20;99.10;;;;;;3059295;19;20022;-71
2022/09/02 00:07:04;;;;;;;2.13;1.60;;;16.10;99.10;;;;;;3060002;19;20015;-71
2022/09/02 00:08:09;;;;;;;2.35;1.40;;;16.20;99.10;;;;;;3059798;19;20096;-71
2022/09/02 00:09:16;;;;;;;3.60;1.75;;;16.00;99.10;;;;;;3059539;19;19994;-71
2022/09/02 00:10:20;;;;;;;3.58;1.70;;;16.00;99.10;;;;;;3060676;19;20019;-71
2022/09/02 00:11:26;;;;;;;1.90;1.50;;;16.00;99.10;;;;;;3060403;19;20046;-71
2022/09/02 00:12:30;;;;;;;2.55;1.60;;;16.00;99.20;;;;;;3059810;19;20661;-71
2022/09/02 00:13:32;;;;;;;2.78;1.55;;;15.90;99.20;;;;;;3060830;19;20015;-71
2022/09/02 00:14:39;;;;;;;3.08;1.50;;;16.00;99.30;;;;;;3060032;19;20014;-71
2022/09/02 00:15:40;;;;;;;2.95;1.80;;;16.00;99.30;;;;;;3061286;19;20543;-71
2022/09/02 00:16:50;;;;;;;2.38;1.63;;;16.10;99.30;;;;;;3059857;19;20014;-71
2022/09/02 00:17:52;;;;;;;2.40;1.48;;;16.10;99.40;;;;;;3060655;19;20043;-71
2022/09/02 00:18:56;;;;;;;2.97;1.70;;;16.10;99.30;;;;;;3060332;19;20010;-71
2022/09/02 00:19:58;;;;;;;4.18;1.70;;;16.00;99.40;;;;;;3060242;19;20358;-71
2022/09/02 00:21:02;;;;;;;3.97;1.70;;;15.90;99.40;;;;;;3060217;19;20037;-71
2022/09/02 00:22:03;;;;;;;4.50;1.80;;;15.90;99.50;;;;;;3060565;19;20025;-71
2022/09/02 00:23:08;;;;;;;2.45;1.67;;;15.90;99.50;;;;;;3059593;19;20010;-71
2022/09/02 00:24:09;;;;;;;3.90;1.83;;;16.30;99.60;;;;;;3059959;19;20039;-71
2022/09/02 00:25:16;;;;;;;2.28;1.50;;;15.90;99.60;;;;;;3060030;19;20040;-72
2022/09/02 00:26:17;;;;;;;2.72;1.60;;;15.90;99.70;;;;;;3060277;19;20017;-71
2022/09/02 00:27:22;;;;;;;2.67;1.50;;;15.80;99.70;;;;;;3061018;19;20018;-71
2022/09/02 00:28:23;;;;;;;2.60;1.70;;;15.70;99.90;;;;;;3060233;19;20011;-71
2022/09/02 00:29:27;;;;;;;3.90;1.90;;;15.90;99.70;;;;;;3059372;19;20500;-71
2022/09/02 00:30:29;;;;;;;2.70;1.80;;;15.80;99.80;;;;;;3061345;19;20028;-70
2022/09/02 00:31:35;;;;;;;2.38;1.90;;;16.00;99.90;;;;;;3057636;19;20010;-71
2022/09/02 00:32:36;;;;;;;3.90;1.90;;;15.80;99.80;;;;;;3061126;19;20372;-71
2022/09/02 00:33:41;;;;;;;3.28;1.80;;;15.70;99.90;;;;;;3059413;19;20493;-71
2022/09/02 00:34:42;;;;;;;3.85;1.40;;;15.80;99.90;;;;;;3060488;19;20010;-71
2022/09/02 00:35:46;;;;;;;3.40;1.70;;;15.80;99.80;;;;;;3060274;19;20425;-71
2022/09/02 00:36:48;;;;;;;3.63;1.80;;;15.70;99.80;;;;;;3059927;19;20350;-71
2022/09/02 00:37:52;;;;;;;2.47;1.73;;;15.90;99.90;;;;;;3060271;19;20026;-71
2022/09/02 00:38:53;;;;;;;3.22;1.60;;;15.70;99.90;;;;;;3060021;19;20066;-71
2022/09/02 00:39:57;;;;;;;2.95;1.77;;;15.70;99.90;;;;;;3060189;19;20062;-71
2022/09/02 00:41:05;;;;;;;2.60;1.88;;;15.70;99.90;;;;;;3060469;19;20530;-71
2022/09/02 00:42:09;;;;;;;3.63;1.88;;;15.80;99.90;;;;;;3061031;19;20018;-71
2022/09/02 00:43:11;;;;;;;2.95;1.92;;;15.80;99.90;;;;;;3060199;19;20111;-71
2022/09/02 00:44:17;;;;;;;2.33;1.52;;;15.70;99.90;;;;;;3060858;19;20596;-71
2022/09/02 00:45:20;;;;;;;2.13;1.60;;;15.80;99.90;;;;;;3059612;19;20018;-71
2022/09/02 00:46:26;;;;;;;2.28;1.60;;;15.70;99.90;;;;;;3059356;19;20002;-71
2022/09/02 00:47:31;;;;;;;2.83;1.77;;;15.70;99.90;;;;;;3060783;19;20010;-71
2022/09/02 00:48:33;;;;;;;3.22;1.83;;;15.70;99.90;;;;;;3059625;19;20368;-71
2022/09/02 00:49:41;;;;;;;5.82;2.20;;;15.80;99.90;;;;;;3059622;19;20014;-71
2022/09/02 00:50:42;;;;;;;2.30;1.75;;;15.60;99.90;;;;;;3060783;19;20097;-71
2022/09/02 00:51:49;;;;;;;3.65;2.00;;;15.60;99.90;;;;;;3060391;19;20011;-71
2022/09/02 00:52:55;;;;;;;2.85;1.75;;;15.50;99.90;;;;;;3059874;19;20664;-71
2022/09/02 00:53:59;;;;;;;3.17;1.95;;;15.70;99.90;;;;;;3059320;19;20017;-71
2022/09/02 00:55:10;;;;;;;2.40;1.85;;;15.50;99.90;;;;;;3059490;19;20019;-71
2022/09/02 00:56:21;;;;;;;3.10;1.83;;;15.70;99.90;;;;;;3059676;19;20035;-71
2022/09/02 00:57:27;;;;;;;2.20;1.60;;;15.60;99.90;;;;;;3059676;19;20031;-71
2022/09/02 00:58:35;;;;;;;3.30;1.73;;;15.50;99.90;;;;;;3060052;19;20376;-71
2022/09/02 00:59:43;;;;;;;2.35;1.63;;;15.60;99.90;;;;;;3059886;19;20022;-71
2022/09/02 01:00:51;;;;;;;6.18;2.00;;;15.50;99.90;;;;;;3060323;19;20028;-71
2022/09/02 01:01:52;;;;;;;2.85;1.70;;;15.50;99.90;;;;;;3060963;19;20018;-71
2022/09/02 01:02:59;;;;;;;3.13;1.63;;;15.60;99.90;;;;;;3060626;19;20036;-71
2022/09/02 01:04:00;;;;;;;2.72;1.63;;;15.60;99.90;;;;;;3059656;19;20019;-70
2022/09/02 01:05:05;;;;;;;2.50;1.60;;;15.50;99.90;;;;;;3059165;19;20007;-71
2022/09/02 01:06:09;;;;;;;2.83;1.73;;;15.60;99.90;;;;;;3059609;19;20342;-71
2022/09/02 01:07:14;;;;;;;4.18;1.60;;;15.60;99.90;;;;;;3059470;19;20011;-71
2022/09/02 01:08:18;;;;;;;2.72;1.80;;;15.50;99.90;;;;;;3060737;19;20036;-71
2022/09/02 01:09:23;;;;;;;2.42;1.73;;;15.40;99.90;;;;;;3059418;19;20085;-71
2022/09/02 01:10:27;;;;;;;4.45;1.70;;;15.40;99.90;;;;;;3059195;19;20100;-71
2022/09/02 01:11:40;;;;;;;1.88;1.60;;;15.30;99.90;;;;;;3059764;19;20444;-71
2022/09/02 01:12:42;;;;;;;3.05;1.90;;;15.40;99.90;;;;;;3059337;19;20357;-70
2022/09/02 01:13:45;;;;;;;4.25;2.05;;;15.40;99.90;;;;;;3058117;19;20518;-71
2022/09/02 01:14:47;;;;;;;2.42;1.70;;;15.30;99.90;;;;;;3058327;19;20013;-71
2022/09/02 01:15:55;;;;;;;2.78;1.85;;;15.60;99.90;;;;;;3059303;19;20014;-71
2022/09/02 01:16:59;;;;;;;2.08;1.67;;;15.40;99.90;;;;;;3058669;19;20499;-71
2022/09/02 01:18:04;;;;;;;6.07;2.00;;;15.40;99.90;;;;;;3059049;19;20010;-71
2022/09/02 01:19:12;;;;;;;3.70;1.80;;;15.30;99.90;;;;;;3058975;19;20472;-71
2022/09/02 01:20:20;;;;;;;3.08;1.77;;;15.30;99.90;;;;;;3060241;19;20022;-71
2022/09/02 01:21:22;;;;;;;3.28;1.63;;;15.50;99.90;;;;;;3058359;19;20360;-71
2022/09/02 01:22:31;;;;;;;2.45;1.95;;;15.40;99.90;;;;;;3058786;19;20014;-72
2022/09/02 01:23:34;;;;;;;3.33;1.88;;;15.40;99.90;;;;;;3058467;19;20023;-71
2022/09/02 01:24:38;;;;;;;3.80;2.10;;;15.20;99.90;;;;;;3059126;19;20488;-71
2022/09/02 01:25:40;;;;;;;2.83;1.90;;;15.20;99.90;;;;;;3058493;19;20021;-71
2022/09/02 01:26:44;;;;;;;;;;;15.20;99.90;;;;;;3059731;19;20018;-71
2022/09/02 01:27:47;;;;;;;3.42;2.00;;;15.30;99.90;;;;;;3060060;19;20360;-71
2022/09/02 01:28:50;;;;;;;2.50;1.70;;;15.30;99.90;;;;;;3059802;19;20403;-71
2022/09/02 01:29:54;;;;;;;2.55;1.90;;;15.20;99.90;;;;;;3060249;19;20375;-71
2022/09/02 01:30:58;;;;;;;3.10;1.90;;;15.00;99.90;;;;;;3059038;19;20024;-71
2022/09/02 01:31:59;;;;;;;2.67;1.98;;;15.20;99.90;;;;;;3059427;19;20018;-71
2022/09/02 01:33:04;;;;;;;2.45;1.80;;;15.10;99.90;;;;;;3059973;19;20477;-71
2022/09/02 01:34:05;;;;;;;2.58;1.80;;;15.10;99.90;;;;;;3058674;19;20027;-71
2022/09/02 01:35:11;;;;;;;3.65;1.65;;;15.10;99.90;;;;;;3059586;19;20014;-71
2022/09/02 01:36:12;;;;;;;2.45;2.00;;;15.20;99.90;;;;;;3058861;19;20039;-70
2022/09/02 01:37:16;;;;;;;2.80;1.80;;;15.10;99.90;;;;;;3059606;19;20022;-71
2022/09/02 01:38:24;;;;;;;3.20;1.77;;;15.00;99.90;;;;;;3058448;19;20015;-71
2022/09/02 01:39:28;;;;;;;2.53;1.90;;;15.10;99.90;;;;;;3059518;19;20548;-71
2022/09/02 01:40:30;;;;;;;3.10;2.10;;;15.00;99.90;;;;;;3059272;19;20014;-70
2022/09/02 01:41:34;;;;;;;4.65;1.80;;;14.90;99.90;;;;;;3058926;19;20480;-71
2022/09/02 01:42:36;;;;;;;2.90;2.00;;;15.00;99.90;;;;;;3058773;19;20018;-71
2022/09/02 01:43:40;;;;;;;4.70;2.08;;;14.70;99.90;;;;;;3058591;19;20006;-71
2022/09/02 01:44:43;;;;;;;2.15;1.83;;;14.90;99.90;;;;;;3059424;19;20022;-71
2022/09/02 01:45:49;;;;;;;3.00;2.00;;;14.90;99.90;;;;;;3058902;19;20002;-70
2022/09/02 01:46:51;;;;;;;3.15;1.92;;;15.00;99.90;;;;;;3058659;19;20018;-71
2022/09/02 01:47:55;;;;;;;4.03;1.90;;;14.90;99.90;;;;;;3058767;19;20519;-71
2022/09/02 01:48:56;;;;;;;3.03;1.90;;;15.00;99.90;;;;;;3059430;19;20014;-70
2022/09/02 01:50:01;;;;;;;2.97;1.80;;;14.60;99.90;;;;;;3058519;19;19999;-71
2022/09/02 01:51:05;;;;;;;1.92;1.70;;;14.80;99.90;;;;;;3059892;19;20012;-71
2022/09/02 01:52:09;;;;;;;3.90;1.80;;;14.80;99.90;;;;;;3059564;19;20082;-71
2022/09/02 01:53:11;;;;;;;2.30;1.83;;;14.80;99.90;;;;;;3060091;19;20010;-71
2022/09/02 01:54:18;;;;;;;2.85;1.80;;;14.70;99.90;;;;;;3058726;19;20032;-71
2022/09/02 01:55:19;;;;;;;5.90;1.80;;;15.00;99.90;;;;;;3058120;19;20011;-70
2022/09/02 01:56:23;;;;;;;3.50;2.00;;;15.60;99.90;;;;;;3057914;19;20432;-71
2022/09/02 01:57:25;;;;;;;3.08;2.00;;;14.80;99.90;;;;;;3058507;19;20393;-71
2022/09/02 01:58:28;;;;;;;3.13;1.98;;;14.60;99.90;;;;;;3058207;19;20044;-71
2022/09/02 01:59:30;;;;;;;2.83;1.85;;;14.70;99.90;;;;;;3059050;19;20025;-71
2022/09/02 02:00:34;;;;;;;;;;;14.80;99.90;;;;;;3060126;19;20052;-71
2022/09/02 02:01:35;;;;;;;4.10;1.92;;;14.70;99.90;;;;;;3059768;19;19932;-71
2022/09/02 02:02:39;;;;;;;3.67;1.98;;;15.40;99.90;;;;;;3059145;19;20007;-71
2022/09/02 02:03:41;;;;;;;2.58;2.10;;;14.60;99.90;;;;;;3059518;19;20357;-71
2022/09/02 02:04:44;;;;;;;2.25;1.90;;;14.60;99.90;;;;;;3059747;19;20028;-71
2022/09/02 02:05:46;;;;;;;7.03;2.10;;;14.40;99.90;;;;;;3058240;19;20010;-71
2022/09/02 02:06:50;;;;;;;2.75;2.20;;;14.60;99.90;;;;;;3059706;19;20036;-71
2022/09/02 02:07:51;;;;;;;3.00;2.20;;;14.60;99.90;;;;;;3058742;19;20011;-71
2022/09/02 02:08:56;;;;;;;2.40;2.00;;;14.70;99.90;;;;;;3059475;19;20032;-71
2022/09/02 02:10:00;;;;;;;2.90;1.80;;;14.40;99.90;;;;;;3059180;19;20572;-70
2022/09/02 02:11:04;;;;;;;5.43;1.88;;;15.20;99.90;;;;;;3058737;19;20019;-71
2022/09/02 02:12:06;;;;;;;2.50;2.10;;;14.60;99.90;;;;;;3059235;19;20014;-70
2022/09/02 02:13:11;;;;;;;2.50;2.08;;;14.60;99.90;;;;;;3059078;19;20010;-71
2022/09/02 02:14:12;;;;;;;3.72;1.90;;;14.50;99.90;;;;;;3058258;19;20014;-71
2022/09/02 02:15:17;;;;;;;;;;;14.50;99.90;;;;;;3058615;19;20011;-71
2022/09/02 02:16:18;;;;;;;3.13;2.00;;;14.40;99.90;;;;;;3058225;19;19911;-70
2022/09/02 02:17:22;;;;;;;2.72;1.95;;;14.40;99.90;;;;;;3058343;19;20446;-71
2022/09/02 02:18:23;;;;;;;3.30;2.00;;;14.30;99.90;;;;;;3059075;19;20014;-71
2022/09/02 02:19:28;;;;;;;3.92;1.95;;;14.40;99.90;;;;;;3058145;19;20014;-71
2022/09/02 02:20:29;;;;;;;4.20;2.28;;;14.40;99.90;;;;;;3058218;19;20011;-70
2022/09/02 02:21:33;;;;;;;3.55;2.20;;;14.30;99.90;;;;;;3059644;19;20128;-70
2022/09/02 02:22:35;;;;;;;3.00;1.98;;;15.50;99.90;;;;;;3058318;19;20035;-70
2022/09/02 02:23:39;;;;;;;3.80;2.20;;;14.10;99.90;;;;;;3058588;19;20480;-71
2022/09/02 02:24:40;;;;;;;2.70;2.00;;;14.40;99.90;;;;;;3058206;19;20015;-71
2022/09/02 02:25:47;;;;;;;2.35;1.80;;;14.30;99.90;;;;;;3058592;19;20019;-71
2022/09/02 02:26:48;;;;;;;4.63;2.13;;;14.60;99.90;;;;;;3059837;19;20022;-71
2022/09/02 02:27:52;;;;;;;3.60;2.10;;;14.40;99.90;;;;;;3059208;19;20469;-72
2022/09/02 02:28:53;;;;;;;3.83;2.38;;;14.20;99.90;;;;;;3056922;19;20407;-71
2022/09/02 02:29:57;;;;;;;2.25;1.83;;;14.20;99.90;;;;;;3058902;19;20018;-71
2022/09/02 02:30:59;;;;;;;2.25;1.90;;;14.30;99.90;;;;;;3058427;19;20010;-71
2022/09/02 02:32:03;;;;;;;;;;;14.30;99.90;;;;;;3057926;19;20031;-71
2022/09/02 02:33:04;;;;;;;2.55;2.00;;;14.40;99.90;;;;;;3057327;19;19931;-71
2022/09/02 02:34:09;;;;;;;2.92;2.17;;;14.40;99.90;;;;;;3057219;19;20018;-70
2022/09/02 02:35:10;;;;;;;3.92;2.00;;;14.20;99.90;;;;;;3058297;19;20049;-71
2022/09/02 02:36:15;;;;;;;2.50;2.00;;;14.20;99.90;;;;;;3058109;19;20006;-71
2022/09/02 02:37:16;;;;;;;3.38;2.00;;;14.20;99.90;;;;;;3059111;19;20022;-71
2022/09/02 02:38:20;;;;;;;3.05;1.98;;;14.30;99.90;;;;;;3058837;19;20010;-70
2022/09/02 02:39:21;;;;;;;3.58;2.10;;;14.20;99.90;;;;;;3058587;19;20043;-71
2022/09/02 02:40:26;;;;;;;2.85;2.15;;;14.10;99.90;;;;;;3057929;19;20019;-71
2022/09/02 02:41:30;;;;;;;2.83;2.00;;;13.90;99.90;;;;;;3058780;19;20037;-71
2022/09/02 02:42:35;;;;;;;2.75;2.17;;;14.10;99.90;;;;;;3058066;19;20489;-70
2022/09/02 02:43:36;;;;;;;2.65;2.05;;;14.20;99.90;;;;;;3059644;19;20011;-71
2022/09/02 02:44:40;;;;;;;4.00;2.25;;;14.20;99.90;;;;;;3057947;19;20019;-71
2022/09/02 02:45:42;;;;;;;4.78;2.10;;;14.20;99.90;;;;;;3058132;19;20009;-71
2022/09/02 02:46:46;;;;;;;4.18;2.00;;;14.10;99.90;;;;;;3057848;19;20035;-71
2022/09/02 02:47:48;;;;;;;3.00;2.50;;;14.20;99.90;;;;;;3057145;19;20011;-71
2022/09/02 02:48:52;;;;;;;;;;;14.00;99.90;;;;;;3057732;19;20011;-71
2022/09/02 02:49:53;;;;;;;2.50;1.92;;;14.20;99.90;;;;;;3057824;19;19918;-71
2022/09/02 02:50:57;;;;;;;3.00;2.30;;;14.00;99.90;;;;;;3057646;19;20015;-71
2022/09/02 02:51:59;;;;;;;3.70;2.00;;;14.10;99.90;;;;;;3059548;19;20083;-71
2022/09/02 02:53:03;;;;;;;2.28;1.98;;;14.10;99.90;;;;;;3057721;19;20011;-71
2022/09/02 02:54:05;;;;;;;4.25;2.17;;;13.90;99.90;;;;;;3058248;19;20002;-70
2022/09/02 02:55:12;;;;;;;3.15;2.33;;;14.10;99.90;;;;;;3058777;19;20021;-71
2022/09/02 02:56:13;;;;;;;3.65;2.47;;;14.00;99.90;;;;;;3061377;19;20022;-71
2022/09/02 02:57:20;;;;;;;3.45;2.03;;;14.10;99.90;;;;;;3060799;19;20377;-71
2022/09/02 02:58:21;;;;;;;3.72;2.22;;;14.00;99.90;;;;;;3062089;19;20032;-70
2022/09/02 02:59:25;;;;;;;2.47;2.10;;;13.90;99.90;;;;;;3059105;19;20493;-71
2022/09/02 03:00:29;;;;;;;2.53;2.05;;;13.90;99.90;;;;;;3061354;19;20017;-71
2022/09/02 03:01:34;;;;;;;3.70;2.17;;;13.90;99.90;;;;;;3061316;19;20026;-71
2022/09/02 03:02:35;;;;;;;2.95;2.10;;;13.90;99.90;;;;;;3061926;19;20350;-71
2022/09/02 03:03:41;;;;;;;4.22;2.40;;;13.90;99.90;;;;;;3061813;19;20385;-71
2022/09/02 03:04:42;;;;;;;3.65;2.28;;;15.20;99.90;;;;;;3060350;19;20025;-70
2022/09/02 03:05:47;;;;;;;2.40;2.03;;;13.70;99.90;;;;;;3061814;19;20018;-71
2022/09/02 03:06:48;;;;;;;6.68;2.38;;;13.70;99.90;;;;;;3060994;19;20006;-70
2022/09/02 03:07:52;;;;;;;2.83;2.17;;;13.80;99.90;;;;;;3060586;19;20021;-71
2022/09/02 03:08:53;;;;;;;3.20;2.13;;;13.80;99.90;;;;;;3061696;19;20035;-71
2022/09/02 03:09:57;;;;;;;2.65;1.90;;;13.90;99.90;;;;;;3061146;19;20023;-71
2022/09/02 03:10:58;;;;;;;2.85;2.50;;;13.90;99.90;;;;;;3062722;19;20014;-71
2022/09/02 03:12:03;;;;;;;4.00;2.10;;;13.80;99.90;;;;;;3061299;19;20018;-70
2022/09/02 03:13:08;;;;;;;4.45;2.30;;;13.70;99.90;;;;;;3060892;19;20390;-71
2022/09/02 03:14:12;;;;;;;3.70;2.10;;;13.90;99.90;;;;;;3061762;19;20014;-71
2022/09/02 03:15:16;;;;;;;2.63;1.77;;;13.90;99.90;;;;;;3061068;19;20002;-71
2022/09/02 03:16:20;;;;;;;2.38;2.05;;;13.80;99.90;;;;;;3060658;19;20022;-70
2022/09/02 03:17:21;;;;;;;4.03;2.10;;;13.80;99.90;;;;;;3061932;19;20496;-71
2022/09/02 03:18:25;;;;;;;3.67;2.00;;;13.60;99.90;;;;;;3060653;19;20361;-71
2022/09/02 03:19:27;;;;;;;3.72;2.38;;;13.80;99.90;;;;;;3060271;19;20030;-71
2022/09/02 03:20:31;;;;;;;2.78;2.20;;;13.40;99.90;;;;;;3061113;19;20040;-70
2022/09/02 03:21:33;;;;;;;2.05;1.85;;;13.70;99.90;;;;;;3061843;19;20022;-71
2022/09/02 03:22:38;;;;;;;3.47;2.40;;;13.70;99.90;;;;;;3060674;19;20007;-71
2022/09/02 03:23:40;;;;;;;2.85;2.17;;;13.70;99.90;;;;;;3061896;19;20018;-71
2022/09/02 03:24:44;;;;;;;2.45;2.20;;;13.60;99.90;;;;;;3060750;19;20015;-70
2022/09/02 03:25:45;;;;;;;3.72;2.20;;;13.70;99.90;;;;;;3060333;19;20014;-71
2022/09/02 03:26:50;;;;;;;4.10;2.35;;;13.60;99.90;;;;;;3060842;19;20011;-70
2022/09/02 03:27:51;;;;;;;3.00;2.00;;;13.70;99.90;;;;;;3062012;19;20011;-71
2022/09/02 03:28:58;;;;;;;2.67;2.25;;;13.60;99.90;;;;;;3060593;19;20018;-70
2022/09/02 03:29:59;;;;;;;2.80;2.50;;;13.70;99.90;;;;;;3060629;19;20010;-70
2022/09/02 03:31:03;;;;;;;2.40;2.08;;;13.60;99.90;;;;;;3062181;19;20025;-71
2022/09/02 03:32:05;;;;;;;3.88;2.40;;;13.70;99.90;;;;;;3060681;19;20021;-71
2022/09/02 03:33:09;;;;;;;4.22;2.20;;;13.70;99.90;;;;;;3060566;19;20010;-70
2022/09/02 03:34:10;;;;;;;4.57;2.40;;;13.80;99.90;;;;;;3062221;19;20340;-70
2022/09/02 03:35:18;;;;;;;4.20;2.10;;;13.60;99.90;;;;;;3061350;19;20039;-70
2022/09/02 03:36:24;;;;;;;3.83;2.05;;;13.60;99.90;;;;;;3060347;19;20355;-70
2022/09/02 03:37:28;;;;;;;2.65;2.10;;;13.60;99.90;;;;;;3060633;19;20010;-70
2022/09/02 03:38:30;;;;;;;2.55;2.17;;;13.60;99.90;;;;;;3061631;19;20018;-71
2022/09/02 03:39:33;;;;;;;4.10;2.42;;;13.80;99.90;;;;;;3059369;19;20480;-71
2022/09/02 03:40:36;;;;;;;3.22;2.10;;;13.60;99.90;;;;;;3060107;19;20033;-70
2022/09/02 03:41:40;;;;;;;2.95;2.45;;;13.60;99.90;;;;;;3060698;19;20011;-71
2022/09/02 03:42:42;;;;;;;2.85;2.30;;;13.40;99.90;;;;;;3060346;19;20014;-70
2022/09/02 03:43:45;;;;;;;3.25;2.28;;;13.60;99.90;;;;;;3059116;19;20096;-70
2022/09/02 03:44:49;;;;;;;3.08;2.50;;;13.30;99.90;;;;;;3060666;19;20011;-70
2022/09/02 03:45:53;;;;;;;3.65;2.50;;;13.50;99.90;;;;;;3060648;19;20035;-70
2022/09/02 03:46:55;;;;;;;2.60;2.08;;;13.50;99.90;;;;;;3060986;19;20018;-70
2022/09/02 03:48:00;;;;;;;3.28;2.30;;;13.40;99.90;;;;;;3060233;19;20007;-70
2022/09/02 03:49:02;;;;;;;3.40;2.28;;;13.40;99.90;;;;;;3060393;19;20348;-70
2022/09/02 03:50:06;;;;;;;3.75;2.45;;;13.40;99.90;;;;;;3060007;19;20018;-70
2022/09/02 03:51:08;;;;;;;3.13;2.10;;;13.40;99.90;;;;;;3060882;19;20014;-70
2022/09/02 03:52:12;;;;;;;4.90;2.70;;;13.40;99.90;;;;;;3060879;19;20010;-70
2022/09/02 03:53:13;;;;;;;2.83;2.05;;;13.40;99.90;;;;;;3060250;19;20078;-70
2022/09/02 03:54:17;;;;;;;3.88;2.30;;;13.60;99.90;;;;;;3061586;19;20026;-70
2022/09/02 03:55:19;;;;;;;3.10;2.42;;;13.40;99.90;;;;;;3060247;19;20002;-70
2022/09/02 03:56:24;;;;;;;3.70;2.38;;;13.40;99.90;;;;;;3060886;19;20453;-70
2022/09/02 03:57:26;;;;;;;3.75;2.40;;;13.50;99.90;;;;;;3059946;19;20022;-70
2022/09/02 03:58:29;;;;;;;5.10;2.55;;;13.20;99.90;;;;;;3060672;19;20483;-70
2022/09/02 03:59:31;;;;;;;2.80;2.17;;;13.40;99.90;;;;;;3059379;19;20022;-70
2022/09/02 04:00:37;;;;;;;3.05;2.17;;;13.30;99.90;;;;;;3061917;19;20512;-70
2022/09/02 04:01:39;;;;;;;4.63;2.50;;;13.40;99.90;;;;;;3060006;19;20010;-70
2022/09/02 04:02:43;;;;;;;3.60;2.40;;;13.30;99.90;;;;;;3060854;19;20018;-70
2022/09/02 04:03:45;;;;;;;3.65;2.47;;;13.60;99.90;;;;;;3060114;19;20018;-70
2022/09/02 04:04:49;;;;;;;5.00;2.45;;;13.40;99.90;;;;;;3060257;19;20028;-70
2022/09/02 04:05:51;;;;;;;6.45;2.40;;;13.20;99.90;;;;;;3059457;19;20014;-70
2022/09/02 04:06:55;;;;;;;2.58;2.28;;;13.20;99.90;;;;;;3059425;19;20506;-70
2022/09/02 04:07:56;;;;;;;2.78;2.20;;;13.30;99.90;;;;;;3060350;19;20018;-71
2022/09/02 04:09:00;;;;;;;3.67;2.35;;;14.00;99.90;;;;;;3060493;19;20003;-70
2022/09/02 04:10:02;;;;;;;3.22;2.28;;;13.30;99.90;;;;;;3059965;19;20018;-70
2022/09/02 04:11:08;;;;;;;3.33;2.40;;;13.70;99.90;;;;;;3060404;19;20077;-70
2022/09/02 04:12:10;;;;;;;3.10;2.42;;;13.20;99.90;;;;;;3060030;19;20035;-70
2022/09/02 04:13:13;;;;;;;5.05;2.40;;;13.10;99.90;;;;;;3059444;19;20022;-70
2022/09/02 04:14:15;;;;;;;5.70;2.60;;;13.10;99.90;;;;;;3059250;19;20052;-70
2022/09/02 04:15:20;;;;;;;;;;;13.10;99.90;;;;;;3060912;19;20468;-70
2022/09/02 04:16:27;;;;;;;2.42;2.05;;;13.30;99.90;;;;;;3060783;19;19923;-71
2022/09/02 04:17:31;;;;;;;4.55;2.40;;;13.20;99.90;;;;;;3061758;19;20026;-70
2022/09/02 04:18:32;;;;;;;4.45;2.35;;;14.10;99.90;;;;;;3059664;19;20485;-71
2022/09/02 04:19:36;;;;;;;3.13;2.25;;;12.90;99.90;;;;;;3058747;19;20014;-70
2022/09/02 04:20:38;;;;;;;3.92;2.33;;;13.30;99.90;;;;;;3058523;19;20014;-70
2022/09/02 04:21:43;;;;;;;4.32;2.50;;;13.20;99.90;;;;;;3059803;19;20488;-70
2022/09/02 04:22:44;;;;;;;3.50;2.30;;;14.50;99.90;;;;;;3059811;19;20538;-70
2022/09/02 04:23:48;;;;;;;3.05;2.40;;;13.00;99.90;;;;;;3059918;19;20014;-70
2022/09/02 04:24:50;;;;;;;3.20;2.40;;;13.20;99.90;;;;;;3060357;19;20014;-70
2022/09/02 04:25:53;;;;;;;3.55;2.40;;;12.90;99.90;;;;;;3060308;19;20633;-70
2022/09/02 04:26:55;;;;;;;3.28;2.38;;;13.20;99.90;;;;;;3059897;19;20088;-70
2022/09/02 04:27:59;;;;;;;6.07;2.70;;;13.10;99.90;;;;;;3059485;19;20376;-70
2022/09/02 04:29:00;;;;;;;2.97;2.45;;;13.20;99.90;;;;;;3059995;19;20018;-70
2022/09/02 04:30:05;;;;;;;3.55;2.88;;;13.10;99.90;;;;;;3059962;19;20078;-70
2022/09/02 04:31:09;;;;;;;4.93;2.38;;;13.00;99.90;;;;;;3059560;19;20036;-70
2022/09/02 04:32:15;;;;;;;4.45;2.20;;;13.00;99.90;;;;;;3059579;19;20031;-70
2022/09/02 04:33:16;;;;;;;3.78;2.63;;;12.90;99.90;;;;;;3059641;19;20018;-72
2022/09/02 04:34:21;;;;;;;3.05;2.30;;;13.10;99.90;;;;;;3061379;19;20044;-71
2022/09/02 04:35:22;;;;;;;3.63;2.58;;;12.90;99.90;;;;;;3059564;19;20011;-70
2022/09/02 04:36:27;;;;;;;3.00;2.60;;;13.10;99.90;;;;;;3059743;19;20014;-70
2022/09/02 04:37:29;;;;;;;2.83;2.50;;;13.00;99.90;;;;;;3059537;19;20010;-70
2022/09/02 04:38:33;;;;;;;3.83;2.40;;;13.00;99.90;;;;;;3060344;19;20109;-70
2022/09/02 04:39:37;;;;;;;2.78;2.40;;;13.00;99.90;;;;;;3058981;19;20011;-70
2022/09/02 04:40:40;;;;;;;3.63;2.50;;;12.80;99.90;;;;;;3059390;19;20124;-71
2022/09/02 04:41:44;;;;;;;3.90;2.42;;;13.10;99.90;;;;;;3060077;19;20015;-70
2022/09/02 04:42:46;;;;;;;3.90;2.38;;;12.90;99.90;;;;;;3060023;19;20005;-70
2022/09/02 04:43:50;;;;;;;3.45;2.45;;;13.40;99.90;;;;;;3059416;19;20022;-70
2022/09/02 04:44:52;;;;;;;3.38;2.40;;;13.40;99.90;;;;;;3059373;19;20027;-70
2022/09/02 04:45:56;;;;;;;3.33;2.58;;;12.90;99.90;;;;;;3059338;19;20422;-70
2022/09/02 04:46:58;;;;;;;5.45;2.65;;;13.00;99.90;;;;;;3059556;19;20014;-70
2022/09/02 04:48:05;;;;;;;3.63;2.40;;;12.90;99.90;;;;;;3059418;19;20090;-70
2022/09/02 04:49:07;;;;;;;2.92;2.22;;;13.10;99.90;;;;;;3059588;19;20010;-70
2022/09/02 04:50:11;;;;;;;3.08;2.35;;;13.00;99.90;;;;;;3058824;19;20010;-70
2022/09/02 04:51:16;;;;;;;3.50;2.50;;;12.80;99.90;;;;;;3060449;19;20039;-70
2022/09/02 04:52:20;;;;;;;3.70;2.50;;;12.90;99.90;;;;;;3060448;19;20018;-70
2022/09/02 04:53:22;;;;;;;3.35;2.55;;;12.90;99.90;;;;;;3058226;19;20086;-70
2022/09/02 04:54:26;;;;;;;4.15;2.50;;;13.10;99.90;;;;;;3058296;19;20088;-70
2022/09/02 04:55:27;;;;;;;4.53;2.60;;;12.80;99.90;;;;;;3060078;19;20019;-70
2022/09/02 04:56:33;;;;;;;5.13;2.55;;;12.90;99.90;;;;;;3058397;19;20009;-71
2022/09/02 04:57:35;;;;;;;3.85;2.38;;;12.80;99.90;;;;;;3060389;19;20070;-70
2022/09/02 04:58:39;;;;;;;;;;;12.70;99.90;;;;;;3060316;19;20018;-70
2022/09/02 04:59:40;;;;;;;3.83;2.63;;;12.80;99.90;;;;;;3059532;19;20325;-70
2022/09/02 05:00:44;;;;;;;3.03;2.25;;;13.50;99.90;;;;;;3059877;19;20380;-70
2022/09/02 05:01:45;;;;;;;4.63;2.42;;;12.70;99.90;;;;;;3060284;19;20026;-70
2022/09/02 05:02:49;;;;;;;4.18;2.50;;;13.10;99.90;;;;;;3059282;19;20017;-70
2022/09/02 05:03:54;;;;;;;5.68;2.40;;;12.20;99.90;;;;;;3059929;19;20010;-70
2022/09/02 05:04:57;;;;;;;2.83;2.28;;;12.70;99.90;;;;;;3059173;19;20015;-70
2022/09/02 05:06:00;;;;;;;3.75;2.65;;;12.70;99.90;;;;;;3059354;19;20027;-71
2022/09/02 05:07:04;;;;;;;4.10;2.55;;;12.90;99.90;;;;;;3059034;19;20006;-71
2022/09/02 05:08:06;;;;;;;5.15;2.60;;;12.90;99.90;;;;;;3059471;19;20018;-72
2022/09/02 05:09:10;;;;;;;2.42;2.22;;;12.70;99.90;;;;;;3060267;19;20022;-72
2022/09/02 05:10:14;;;;;;;3.42;2.17;;;12.70;99.90;;;;;;3059051;19;20062;-71
2022/09/02 05:11:21;;;;;;;3.03;2.40;;;12.90;99.90;;;;;;3058966;19;20018;-71
2022/09/02 05:12:26;;;;;;;4.78;2.72;;;12.90;99.90;;;;;;3058789;19;20015;-71
2022/09/02 05:13:30;;;;;;;3.85;2.60;;;12.60;99.90;;;;;;3059421;19;20006;-71
2022/09/02 05:14:31;;;;;;;2.88;2.38;;;12.80;99.90;;;;;;3060189;19;20026;-71
2022/09/02 05:15:42;;;;;;;3.10;2.50;;;12.60;99.90;;;;;;3059395;19;20006;-71
2022/09/02 05:16:44;;;;;;;3.55;2.72;;;12.70;99.90;;;;;;3060014;19;20033;-71
2022/09/02 05:17:48;;;;;;;3.50;2.78;;;12.70;99.90;;;;;;3057905;19;20099;-71
2022/09/02 05:18:50;;;;;;;6.40;2.45;;;12.60;99.90;;;;;;3060124;19;20022;-71
2022/09/02 05:19:57;;;;;;;2.85;2.30;;;12.90;99.90;;;;;;3058366;19;20040;-70
2022/09/02 05:20:58;;;;;;;3.78;2.50;;;12.60;99.90;;;;;;3059114;19;20113;-71
2022/09/02 05:22:03;;;;;;;5.03;2.97;;;12.90;99.90;;;;;;3058435;19;20011;-70
2022/09/02 05:23:04;;;;;;;3.53;2.70;;;12.80;99.90;;;;;;3058787;19;20014;-70
2022/09/02 05:24:08;;;;;;;3.72;2.20;;;12.80;99.90;;;;;;3059453;19;20017;-70
2022/09/02 05:25:12;;;;;;;2.88;2.20;;;12.80;99.90;;;;;;3059408;19;20015;-71
2022/09/02 05:26:14;;;;;;;3.40;2.50;;;12.80;99.90;;;;;;3059539;19;20007;-71
2022/09/02 05:27:19;;;;;;;3.83;2.40;;;12.70;99.90;;;;;;3058921;19;20007;-71
2022/09/02 05:28:20;;;;;;;4.25;2.70;;;12.70;99.90;;;;;;3059029;19;20014;-71
2022/09/02 05:29:24;;;;;;;4.07;2.38;;;12.80;99.90;;;;;;3058469;19;20014;-71
2022/09/02 05:30:26;;;;;;;2.97;2.55;;;12.70;99.90;;;;;;3059447;19;20018;-70
2022/09/02 05:31:30;;;;;;;5.40;2.70;;;13.40;99.90;;;;;;3058695;19;20037;-70